Otagawa — JD3046 — position and weather

sailwx.info

Track history (hours):
 
Tides and Currents Weather Stations Pressure Air Temp Water Temp Dewpoint Dewpoint Depression Visibility Wind Speed Wind Dir Waves Ship Positions

Otagawa

Last reported at 2017-Feb-22 08:17 UTC. Time now 2017-Feb-26 23:56 UTC.
Position N 34°59' E 139°44'.

Length 70 m; draft 4 m.

Type: Ship. MMSI: 431001328.

Date/timePositionNaut miles runAvg speedWind from/ knotsBaromVisibWave heightAir tempDewpointWater temp
2017-Feb-22 08:17N 34°59' E 139°44'710.0
2017-Feb-22 07:33N 35°07' E 139°45'1010.3
2017-Feb-22 06:33N 35°17' E 139°45'8 7.9
2017-Feb-22 05:33N 35°24' E 139°41'0 0.0
2017-Feb-22 04:33N 35°24' E 139°41'1 0.7
2017-Feb-22 03:33N 35°24' E 139°41'4 3.8
2017-Feb-22 02:33N 35°27' E 139°43'1 0.8
2017-Feb-22 01:33N 35°28' E 139°42'0 0.0
2017-Feb-22 00:33N 35°28' E 139°42'0 0.0
2017-Feb-21 23:33N 35°28' E 139°42'0 0.0
2017-Feb-21 22:33N 35°28' E 139°42'1 1.3
2017-Feb-21 21:33N 35°27' E 139°43'0 0.1
2017-Feb-21 20:33N 35°27' E 139°43'0 0.0
2017-Feb-21 19:33N 35°27' E 139°43'0 0.0
2017-Feb-21 18:33N 35°27' E 139°43'0 0.0
2017-Feb-21 17:30N 35°27' E 139°43'0 0.0
2017-Feb-21 16:33N 35°27' E 139°43'0 0.0
2017-Feb-21 15:33N 35°27' E 139°43'0 0.1
2017-Feb-21 14:33N 35°27' E 139°43'0 0.0
2017-Feb-21 13:31N 35°27' E 139°43'0 0.0
2017-Feb-21 12:33N 35°27' E 139°43'0 0.1
2017-Feb-21 11:33N 35°27' E 139°43'0 0.0
2017-Feb-21 10:24N 35°27' E 139°43'4 5.2
2017-Feb-21 09:33N 35°22' E 139°43'9 9.1
2017-Feb-21 08:33N 35°14' E 139°47'10 9.7
2017-Feb-21 07:34N 35°04' E 139°45'  
2017-Feb-13 17:22N 35°02' E 139°44'910.6
2017-Feb-13 16:33N 35°11' E 139°46'1010.2
2017-Feb-13 15:33N 35°20' E 139°42'4 4.1
2017-Feb-13 14:33N 35°24' E 139°41'0 0.0
2017-Feb-13 13:33N 35°24' E 139°41'0 0.0
2017-Feb-13 12:33N 35°24' E 139°41'1 1.2
2017-Feb-13 11:33N 35°23' E 139°40'0 0.0
2017-Feb-13 10:33N 35°23' E 139°40'0 0.1
2017-Feb-13 09:33N 35°23' E 139°40'0 0.0
2017-Feb-13 08:33N 35°23' E 139°40'3 3.4
2017-Feb-13 07:33N 35°26' E 139°42'2 1.7
2017-Feb-13 06:33N 35°28' E 139°42'0 0.0
2017-Feb-13 05:33N 35°28' E 139°42'0 0.0
2017-Feb-13 04:33N 35°28' E 139°42'7 6.7
2017-Feb-13 03:33N 35°21' E 139°45'10 9.7
2017-Feb-13 02:33N 35°12' E 139°47'  
Track history (hours):
 
Tides and Currents Weather Stations Pressure Air Temp Water Temp Dewpoint Dewpoint Depression Visibility Wind Speed Wind Dir Waves Ship Positions

Otagawa

Last reported at 2017-Feb-22 08:17 UTC. Time now 2017-Feb-26 23:56 UTC.
Position N 34°59' E 139°44'.

Length 70 m; draft 4 m.

Type: Ship. MMSI: 431001328.

Date/timePositionNaut miles runAvg speedWind from/ knotsBaromVisibWave heightAir tempDewpointWater temp
2017-Feb-22 08:17N 34°59' E 139°44'710.0
2017-Feb-22 07:33N 35°07' E 139°45'1010.3
2017-Feb-22 06:33N 35°17' E 139°45'8 7.9
2017-Feb-22 05:33N 35°24' E 139°41'0 0.0
2017-Feb-22 04:33N 35°24' E 139°41'1 0.7
2017-Feb-22 03:33N 35°24' E 139°41'4 3.8
2017-Feb-22 02:33N 35°27' E 139°43'1 0.8
2017-Feb-22 01:33N 35°28' E 139°42'0 0.0
2017-Feb-22 00:33N 35°28' E 139°42'0 0.0
2017-Feb-21 23:33N 35°28' E 139°42'0 0.0
2017-Feb-21 22:33N 35°28' E 139°42'1 1.3
2017-Feb-21 21:33N 35°27' E 139°43'0 0.1
2017-Feb-21 20:33N 35°27' E 139°43'0 0.0
2017-Feb-21 19:33N 35°27' E 139°43'0 0.0
2017-Feb-21 18:33N 35°27' E 139°43'0 0.0
2017-Feb-21 17:30N 35°27' E 139°43'0 0.0
2017-Feb-21 16:33N 35°27' E 139°43'0 0.0
2017-Feb-21 15:33N 35°27' E 139°43'0 0.1
2017-Feb-21 14:33N 35°27' E 139°43'0 0.0
2017-Feb-21 13:31N 35°27' E 139°43'0 0.0
2017-Feb-21 12:33N 35°27' E 139°43'0 0.1
2017-Feb-21 11:33N 35°27' E 139°43'0 0.0
2017-Feb-21 10:24N 35°27' E 139°43'4 5.2
2017-Feb-21 09:33N 35°22' E 139°43'9 9.1
2017-Feb-21 08:33N 35°14' E 139°47'10 9.7
2017-Feb-21 07:34N 35°04' E 139°45'  
2017-Feb-13 17:22N 35°02' E 139°44'910.6
2017-Feb-13 16:33N 35°11' E 139°46'1010.2
2017-Feb-13 15:33N 35°20' E 139°42'4 4.1
2017-Feb-13 14:33N 35°24' E 139°41'0 0.0
2017-Feb-13 13:33N 35°24' E 139°41'0 0.0
2017-Feb-13 12:33N 35°24' E 139°41'1 1.2
2017-Feb-13 11:33N 35°23' E 139°40'0 0.0
2017-Feb-13 10:33N 35°23' E 139°40'0 0.1
2017-Feb-13 09:33N 35°23' E 139°40'0 0.0
2017-Feb-13 08:33N 35°23' E 139°40'3 3.4
2017-Feb-13 07:33N 35°26' E 139°42'2 1.7
2017-Feb-13 06:33N 35°28' E 139°42'0 0.0
2017-Feb-13 05:33N 35°28' E 139°42'0 0.0
2017-Feb-13 04:33N 35°28' E 139°42'7 6.7
2017-Feb-13 03:33N 35°21' E 139°45'10 9.7
2017-Feb-13 02:33N 35°12' E 139°47'  

Dump ship's entire track history